createdAt,value
2022-10-14T00:02:08.682Z,7.07
2022-10-14T00:07:06.878Z,16.10
2022-10-14T00:12:05.163Z,14.87
2022-10-14T00:17:03.434Z,7.43
2022-10-14T00:22:02.952Z,10.53
2022-10-14T00:27:01.278Z,16.20
2022-10-14T00:31:59.472Z,9.53
2022-10-14T00:36:57.605Z,13.50
2022-10-14T00:41:57.093Z,8.13
2022-10-14T00:46:56.732Z,11.77
2022-10-14T00:51:59.479Z,14.67
2022-10-14T00:56:59.052Z,6.37
2022-10-14T01:01:57.224Z,12.83
2022-10-14T01:07:01.904Z,11.70
2022-10-14T01:12:28.188Z,19.20
2022-10-14T01:17:40.027Z,17.17
2022-10-14T01:22:44.860Z,11.67
2022-10-14T01:28:06.103Z,16.57
2022-10-14T01:33:17.219Z,10.53
2022-10-14T01:38:20.175Z,9.17
2022-10-14T01:43:21.798Z,17.73
2022-10-14T01:48:26.650Z,17.73
2022-10-14T01:53:28.249Z,11.10
2022-10-14T01:58:31.571Z,14.20
2022-10-14T02:03:42.155Z,12.37
2022-10-14T02:08:53.717Z,10.37
2022-10-14T02:14:11.213Z,23.03
2022-10-14T02:19:20.557Z,10.77
2022-10-14T02:24:25.390Z,9.33
2022-10-14T02:29:25.538Z,14.90
2022-10-14T02:34:27.478Z,10.67
2022-10-14T02:39:30.073Z,10.37
2022-10-14T02:44:28.878Z,20.37
2022-10-14T02:49:28.407Z,13.37
2022-10-14T02:54:26.538Z,14.33
2022-10-14T02:59:24.719Z,14.30
2022-10-14T03:04:23.216Z,11.20
2022-10-14T03:09:24.973Z,27.47
2022-10-14T03:14:23.254Z,9.37
2022-10-14T03:19:22.487Z,13.57
2022-10-14T03:24:25.735Z,23.10
2022-10-14T03:29:43.824Z,25.53
2022-10-14T03:34:48.619Z,22.93
2022-10-14T03:39:54.354Z,22.13
2022-10-14T03:44:53.088Z,13.83
2022-10-14T03:49:57.577Z,11.00
2022-10-14T03:55:05.030Z,14.07
2022-10-14T04:00:04.838Z,22.87
2022-10-14T04:05:11.658Z,21.60
2022-10-14T04:10:12.864Z,10.57
2022-10-14T04:15:16.337Z,12.60
2022-10-14T04:20:33.559Z,23.70
2022-10-14T04:25:33.283Z,12.60
2022-10-14T04:30:34.799Z,16.40
2022-10-14T04:35:33.358Z,19.17
2022-10-14T04:40:33.625Z,27.80
2022-10-14T04:45:33.603Z,17.77
2022-10-14T04:50:34.709Z,13.63
2022-10-14T04:55:52.431Z,33.10
2022-10-14T05:00:51.147Z,15.13
2022-10-14T05:06:06.203Z,15.97
2022-10-14T05:11:08.914Z,37.03
2022-10-14T05:16:13.580Z,27.03
2022-10-14T05:21:11.899Z,14.80
2022-10-14T05:26:27.381Z,31.57
2022-10-14T05:31:27.818Z,39.37
2022-10-14T05:36:49.704Z,30.97
2022-10-14T05:41:50.135Z,31.57
2022-10-14T05:46:54.393Z,22.80
2022-10-14T05:51:53.462Z,33.70
2022-10-14T05:56:55.791Z,35.03
2022-10-14T06:01:55.458Z,25.33
2022-10-14T06:06:56.035Z,36.47
2022-10-14T06:11:55.694Z,16.50
2022-10-14T06:16:54.007Z,24.83
2022-10-14T06:21:52.378Z,32.33
2022-10-14T06:26:50.618Z,28.43
2022-10-14T06:31:50.078Z,11.23
2022-10-14T06:36:48.401Z,29.33
2022-10-14T06:41:46.545Z,41.67
2022-10-14T06:46:51.822Z,14.53
2022-10-14T06:51:49.991Z,23.27
2022-10-14T06:56:48.086Z,33.93
2022-10-14T07:01:46.358Z,34.87
2022-10-14T07:06:45.852Z,41.67
2022-10-14T07:11:43.970Z,39.67
2022-10-14T07:16:44.422Z,29.13
2022-10-14T07:21:42.905Z,39.40
2022-10-14T07:26:42.368Z,41.97
2022-10-14T07:31:40.550Z,23.20
2022-10-14T07:36:38.664Z,27.57
2022-10-14T07:41:37.043Z,35.03
2022-10-14T07:46:39.496Z,34.83
2022-10-14T07:51:38.345Z,39.07
2022-10-14T07:56:36.908Z,22.10
2022-10-14T08:01:36.524Z,30.37
2022-10-14T08:06:34.691Z,19.57
2022-10-14T08:11:33.035Z,29.60
2022-10-14T08:16:32.990Z,21.57
2022-10-14T08:21:32.937Z,25.57
2022-10-14T08:26:34.069Z,20.47
2022-10-14T08:31:32.925Z,27.30
2022-10-14T08:36:32.435Z,18.37
2022-10-14T08:41:55.490Z,14.60
2022-10-14T08:46:55.912Z,28.13
2022-10-14T08:58:48.407Z,20.37
2022-10-14T09:03:46.662Z,21.57
2022-10-14T09:08:47.912Z,18.73
2022-10-14T09:13:50.279Z,14.93
2022-10-14T09:18:54.611Z,16.93
2022-10-14T09:23:58.543Z,17.20
2022-10-14T09:28:58.074Z,19.97
2022-10-14T09:33:56.163Z,11.60
2022-10-14T09:38:56.252Z,15.77
2022-10-14T09:44:21.608Z,14.20
2022-10-14T09:49:25.373Z,14.60
2022-10-14T09:54:26.513Z,9.33
2022-10-14T10:06:25.796Z,8.50
2022-10-14T10:11:29.958Z,10.97
2022-10-14T10:17:19.355Z,12.50
2022-10-14T10:23:06.882Z,10.47
2022-10-14T10:28:17.860Z,5.70
2022-10-14T10:33:27.143Z,7.37
2022-10-14T10:38:32.207Z,6.27
2022-10-14T10:43:57.342Z,9.60
2022-10-14T10:49:02.643Z,7.93
2022-10-14T10:54:09.105Z,12.80
2022-10-14T10:59:47.231Z,11.80
2022-10-14T11:04:50.480Z,8.57
2022-10-14T11:10:19.651Z,10.77
2022-10-14T11:15:39.850Z,6.00
2022-10-14T11:20:47.981Z,8.20
2022-10-14T11:25:52.221Z,6.87
2022-10-14T11:30:59.766Z,6.40
2022-10-14T11:36:08.676Z,5.73
2022-10-14T11:41:13.874Z,6.10
2022-10-14T11:46:17.726Z,6.27
2022-10-14T11:51:22.121Z,6.20
2022-10-14T11:56:32.378Z,7.30
2022-10-14T12:01:37.242Z,6.40
2022-10-14T12:06:42.377Z,4.50
2022-10-14T12:12:47.938Z,5.17
2022-10-14T12:17:52.192Z,5.57
2022-10-14T12:22:51.535Z,6.43
2022-10-14T12:27:52.232Z,4.80
2022-10-14T12:33:03.136Z,6.53
2022-10-14T12:38:04.848Z,6.70
2022-10-14T12:43:15.584Z,6.93
2022-10-14T12:48:19.315Z,5.60
2022-10-14T12:53:25.079Z,6.27
2022-10-14T12:58:30.411Z,9.50
2022-10-14T13:03:34.231Z,5.57
2022-10-14T13:08:32.328Z,5.37
2022-10-14T13:13:52.363Z,5.10
2022-10-14T13:18:53.560Z,5.73
2022-10-14T13:23:53.307Z,8.80
2022-10-14T13:29:02.508Z,10.13
2022-10-14T13:34:14.162Z,8.07
2022-10-14T13:39:12.472Z,5.00
2022-10-14T13:44:13.254Z,11.27
2022-10-14T13:49:18.672Z,4.80
2022-10-14T13:54:19.694Z,8.77
2022-10-14T13:59:43.203Z,9.43
2022-10-14T14:04:45.823Z,5.87
2022-10-14T14:09:51.152Z,6.70
2022-10-14T14:14:51.121Z,7.97
2022-10-14T14:19:51.680Z,7.30
2022-10-14T14:24:50.280Z,7.53
2022-10-14T14:29:51.339Z,5.37
2022-10-14T14:40:00.580Z,5.07
2022-10-14T14:45:02.235Z,4.13
2022-10-14T14:50:28.560Z,5.13
2022-10-14T14:55:44.275Z,5.70
2022-10-14T15:00:46.434Z,9.77
2022-10-14T15:05:52.676Z,7.10
2022-10-14T15:10:51.710Z,9.17
2022-10-14T15:15:54.201Z,9.53
2022-10-14T15:21:04.524Z,6.83
2022-10-14T15:26:02.620Z,5.87
2022-10-14T15:31:04.750Z,6.70
2022-10-14T15:36:06.143Z,5.73
2022-10-14T15:41:05.305Z,7.47
2022-10-14T15:46:20.935Z,5.40
2022-10-14T15:51:22.296Z,4.97
2022-10-14T15:56:20.978Z,5.17
2022-10-14T16:01:21.944Z,8.10
2022-10-14T16:06:22.748Z,3.60
2022-10-14T16:11:24.581Z,5.03
2022-10-14T16:16:26.308Z,5.27
2022-10-14T16:21:25.752Z,4.30
2022-10-14T16:26:24.935Z,7.43
2022-10-14T16:31:23.323Z,3.40
2022-10-14T16:36:26.497Z,8.07
2022-10-14T16:41:27.538Z,4.47
2022-10-14T16:46:45.666Z,4.07
2022-10-14T16:51:45.826Z,6.43
2022-10-14T16:57:00.612Z,5.83
2022-10-14T17:02:00.810Z,5.13
2022-10-14T17:07:06.953Z,3.40
2022-10-14T17:12:09.418Z,3.60
2022-10-14T17:17:13.065Z,4.97
2022-10-14T17:22:13.617Z,3.40
2022-10-14T17:27:11.776Z,3.60
2022-10-14T17:32:09.874Z,3.40
2022-10-14T17:42:12.655Z,7.93
2022-10-14T17:47:10.747Z,3.67
2022-10-14T17:52:08.905Z,5.50
2022-10-14T17:57:07.019Z,3.53
2022-10-14T18:02:09.615Z,3.40
2022-10-14T18:07:07.750Z,4.57
2022-10-14T18:12:09.245Z,4.23
2022-10-14T18:17:12.823Z,3.40
2022-10-14T18:22:12.057Z,3.73
2022-10-14T18:27:10.185Z,3.30
2022-10-14T18:32:09.710Z,3.13
2022-10-14T18:37:10.348Z,4.10
2022-10-14T18:42:08.519Z,5.70
2022-10-14T18:47:06.903Z,2.50
2022-10-14T18:52:06.436Z,3.67
2022-10-14T18:57:04.922Z,3.97
2022-10-14T19:02:03.760Z,3.60
2022-10-14T19:07:01.856Z,4.40
2022-10-14T19:12:21.574Z,4.20
2022-10-14T19:17:19.915Z,4.60
2022-10-14T19:22:18.052Z,5.50
2022-10-14T19:27:17.791Z,5.23
2022-10-14T19:32:15.895Z,5.10
2022-10-14T19:37:14.009Z,3.00
2022-10-14T19:42:12.131Z,3.17
2022-10-14T19:48:12.408Z,4.60
2022-10-14T19:53:12.388Z,3.10
2022-10-14T19:58:10.908Z,3.53
2022-10-14T20:03:09.095Z,5.50
2022-10-14T20:08:07.310Z,4.00
2022-10-14T20:13:06.866Z,4.13
2022-10-14T20:18:05.070Z,4.27
2022-10-14T20:23:03.167Z,3.50
2022-10-14T20:28:01.273Z,4.57
2022-10-14T20:33:00.930Z,3.97
2022-10-14T20:37:59.086Z,3.57
2022-10-14T20:42:57.855Z,2.93
2022-10-14T20:47:56.680Z,4.13
2022-10-14T21:06:47.698Z,4.20
2022-10-14T21:11:46.542Z,2.67
2022-10-14T21:16:44.710Z,2.97
2022-10-14T21:21:46.112Z,3.10
2022-10-14T21:26:46.414Z,2.27
2022-10-14T21:31:44.650Z,4.20
2022-10-14T21:36:43.349Z,3.40
2022-10-14T21:41:42.790Z,2.50
2022-10-14T21:46:42.340Z,2.93
2022-10-14T21:51:41.040Z,2.90
2022-10-14T21:56:39.610Z,3.13
2022-10-14T22:01:37.784Z,3.93
2022-10-14T22:06:37.722Z,5.60
2022-10-14T22:11:38.133Z,3.80
2022-10-14T22:16:37.191Z,3.23
2022-10-14T22:21:38.573Z,3.03
2022-10-14T22:26:37.611Z,4.93
2022-10-14T22:31:36.370Z,4.63
2022-10-14T22:36:35.993Z,7.27
2022-10-14T22:41:36.105Z,4.83
2022-10-14T22:46:35.632Z,4.23
2022-10-14T22:51:35.901Z,3.70
2022-10-14T22:56:35.376Z,4.20
2022-10-14T23:01:34.390Z,3.50
2022-10-14T23:06:32.599Z,3.20
2022-10-14T23:11:32.030Z,3.93
2022-10-14T23:16:31.481Z,4.30
2022-10-14T23:21:31.891Z,3.20
2022-10-14T23:26:33.129Z,3.10
2022-10-14T23:31:34.323Z,3.30
2022-10-14T23:36:33.094Z,6.27
2022-10-14T23:41:31.340Z,3.10
2022-10-14T23:46:29.582Z,3.20
2022-10-14T23:51:29.183Z,4.80
2022-10-14T23:56:27.351Z,4.90
